Time;durP1;ratioP1;P1;durP2;ratioP2;P2;SDS_P1;SDS_P2;PMS_P1;PMS_P2;Temp;Humidity;BMP_temperature;BMP_pressure;BME280_temperature;BME280_humidity;BME280_pressure;Samples;Min_cycle;Max_cycle;Signal;HPM_P1;HPM_P2
2023/04/22 00:00:48;;;;;;;;;;;;;;;18.83;59.08;98505.06;2078678;28;19974;-54
2023/04/22 00:01:49;;;;;;;;;;;;;;;18.81;59.24;98507.16;2082000;28;20361;-52
2023/04/22 00:02:50;;;;;;;;;;;;;;;18.83;59.20;98513.13;2080360;28;20650;-52
2023/04/22 00:03:51;;;;;;;;;;;;;;;18.80;59.39;98506.31;2080377;28;19983;-52
2023/04/22 00:04:52;;;;;;;;;;;;;;;18.80;59.35;98513.53;2083953;28;19929;-52
2023/04/22 00:05:53;;;;;;;;;;;;;;;18.81;59.47;98507.97;2083289;28;19929;-53
2023/04/22 00:06:54;;;;;;;;;;;;;;;18.82;59.27;98509.63;2080860;28;20264;-53
2023/04/22 00:07:55;;;;;;;;;;;;;;;18.80;59.24;98506.31;2079611;28;19978;-53
2023/04/22 00:08:56;;;;;;;;;;;;;;;18.80;59.27;98510.84;2080371;28;19928;-53
2023/04/22 00:09:57;;;;;;;;;;;;;;;18.81;59.22;98507.16;2080163;28;19940;-53
2023/04/22 00:10:59;;;;;;;;;;;;;;;18.82;59.29;98509.63;2082424;28;20371;-51
2023/04/22 00:12:01;;;;;;;;;;;;;;;18.83;58.97;98510.44;2080630;28;20842;-53
2023/04/22 00:13:02;;;;;;;;;;;;;;;18.80;58.98;98510.84;2082911;28;20009;-55
2023/04/22 00:14:03;;;;;;;;;;;;;;;18.79;59.17;98510.03;2080686;28;21068;-51
2023/04/22 00:15:04;;;;;;;;;;;;;;;18.80;59.08;98510.84;2080586;28;20316;-51
2023/04/22 00:16:06;;;;;;;;;;;;;;;18.81;59.24;98509.84;2078734;28;19981;-54
2023/04/22 00:17:06;;;;;;;;;;;;;;;18.78;59.32;98507.53;2081427;28;20333;-53
2023/04/22 00:18:12;;;;;;;;;;;;;;;18.78;59.32;98508.41;2080741;28;19940;-52
2023/04/22 00:19:13;;;;;;;;;;;;;;;18.79;59.23;98504.66;2082704;28;19940;-52
2023/04/22 00:20:15;;;;;;;;;;;;;;;18.78;59.26;98507.53;2078925;28;20020;-53
2023/04/22 00:21:15;;;;;;;;;;;;;;;18.77;59.01;98506.72;2086325;28;20456;-53
2023/04/22 00:22:17;;;;;;;;;;;;;;;18.76;59.14;98505.06;2080788;28;19978;-52
2023/04/22 00:23:17;;;;;;;;;;;;;;;18.76;59.43;98502.41;2077984;28;20256;-52
2023/04/22 00:24:19;;;;;;;;;;;;;;;18.76;59.19;98502.41;2080981;28;19937;-54
2023/04/22 00:25:19;;;;;;;;;;;;;;;18.76;59.32;98505.06;2081453;28;20520;-51
2023/04/22 00:26:22;;;;;;;;;;;;;;;18.74;59.19;98502.59;2080060;28;19928;-54
2023/04/22 00:27:23;;;;;;;;;;;;;;;18.75;59.15;98508.81;2080315;28;20362;-51
2023/04/22 00:28:24;;;;;;;;;;;;;;;18.75;59.19;98503.44;2082454;28;19933;-46
2023/04/22 00:29:25;;;;;;;;;;;;;;;18.77;59.20;98512.09;2078460;28;19933;-51
2023/04/22 00:30:26;;;;;;;;;;;;;;;18.77;59.42;98508.59;2078079;28;19955;-50
2023/04/22 00:31:27;;;;;;;;;;;;;;;18.75;59.28;98506.13;2073691;28;20011;-53
2023/04/22 00:32:28;;;;;;;;;;;;;;;18.74;59.38;98507.13;2069338;28;19929;-54
2023/04/22 00:33:29;;;;;;;;;;;;;;;18.75;59.23;98514.19;2072396;28;20485;-52
2023/04/22 00:34:30;;;;;;;;;;;;;;;18.75;59.19;98509.63;2077254;28;20372;-51
2023/04/22 00:35:31;;;;;;;;;;;;;;;18.73;59.34;98510.84;2087970;28;19936;-50
2023/04/22 00:36:32;;;;;;;;;;;;;;;18.74;59.48;98517.88;2083159;28;20379;-51
2023/04/22 00:37:33;;;;;;;;;;;;;;;18.74;59.20;98512.50;2081193;28;19932;-52
2023/04/22 00:38:34;;;;;;;;;;;;;;;18.74;59.15;98507.13;2082379;28;19972;-52
2023/04/22 00:39:37;;;;;;;;;;;;;;;18.75;59.40;98508.81;2085779;28;19935;-53
2023/04/22 00:40:38;;;;;;;;;;;;;;;18.74;59.24;98509.81;2081939;28;20019;-49
2023/04/22 00:41:41;;;;;;;;;;;;;;;18.74;59.23;98509.81;2080717;28;20783;-51
2023/04/22 00:42:42;;;;;;;;;;;;;;;18.73;59.25;98500.91;2079730;28;20547;-50
2023/04/22 00:43:43;;;;;;;;;;;;;;;18.73;59.22;98503.59;2078974;28;19960;-53
2023/04/22 00:44:45;;;;;;;;;;;;;;;18.74;59.17;98504.44;2080339;28;19932;-54
2023/04/22 00:45:47;;;;;;;;;;;;;;;18.73;59.14;98505.47;2077805;28;19933;-50
2023/04/22 00:46:47;;;;;;;;;;;;;;;18.72;59.42;98499.28;2079722;28;20078;-50
2023/04/22 00:47:49;;;;;;;;;;;;;;;18.73;59.19;98506.28;2078946;28;20105;-51
2023/04/22 00:48:49;;;;;;;;;;;;;;;18.74;59.06;98507.13;2078892;28;19933;-51
2023/04/22 00:49:51;;;;;;;;;;;;;;;18.72;59.11;98504.66;2079650;28;20395;-55
2023/04/22 00:50:51;;;;;;;;;;;;;;;18.73;59.29;98500.91;2079157;28;19978;-54
2023/04/22 00:51:53;;;;;;;;;;;;;;;18.73;59.35;98500.09;2084041;28;20692;-53
2023/04/22 00:52:54;;;;;;;;;;;;;;;18.73;59.32;98500.91;2081283;28;19925;-50
2023/04/22 00:53:55;;;;;;;;;;;;;;;18.75;59.12;98506.13;2077448;28;19938;-50
2023/04/22 00:54:56;;;;;;;;;;;;;;;18.73;59.09;98500.09;2078858;28;19955;-52
2023/04/22 00:55:58;;;;;;;;;;;;;;;18.73;59.08;98505.47;2078759;28;19939;-53
2023/04/22 00:57:01;;;;;;;;;;;;;;;18.73;58.96;98500.09;2078746;28;20599;-47
2023/04/22 00:58:03;;;;;;;;;;;;;;;18.73;58.99;98500.91;2078644;28;19935;-49
2023/04/22 00:59:03;;;;;;;;;;;;;;;18.73;59.15;98502.78;2080191;28;20001;-52
2023/04/22 01:00:06;;;;;;;;;;;;;;;18.71;59.40;98504.84;2082217;28;19966;-51
2023/04/22 01:01:06;;;;;;;;;;;;;;;18.73;59.04;98505.47;2078578;28;20397;-54
2023/04/22 01:02:08;;;;;;;;;;;;;;;18.70;59.24;98505.88;2078696;28;19940;-52
2023/04/22 01:03:08;;;;;;;;;;;;;;;18.70;59.32;98513.94;2079832;28;19933;-55
2023/04/22 01:04:11;;;;;;;;;;;;;;;18.70;59.33;98506.69;2077499;28;19928;-51
2023/04/22 01:05:11;;;;;;;;;;;;;;;18.70;59.29;98513.94;2078165;28;20523;-54
2023/04/22 01:06:13;;;;;;;;;;;;;;;18.69;59.33;98512.28;2081188;28;19937;-54
2023/04/22 01:07:13;;;;;;;;;;;;;;;18.68;59.33;98505.25;2083777;28;20392;-48
2023/04/22 01:08:15;;;;;;;;;;;;;;;18.74;59.37;98507.13;2082312;28;19929;-50
2023/04/22 01:09:15;;;;;;;;;;;;;;;18.71;59.24;98502.97;2078093;28;20523;-53
2023/04/22 01:10:17;;;;;;;;;;;;;;;18.71;59.26;98511.03;2079791;28;20006;-53
2023/04/22 01:11:17;;;;;;;;;;;;;;;18.72;59.14;98498.41;2078628;28;19935;-53
2023/04/22 01:12:20;;;;;;;;;;;;;;;18.71;59.18;98502.16;2080176;28;20464;-54
2023/04/22 01:13:21;;;;;;;;;;;;;;;18.71;59.22;98502.16;2079470;28;19971;-54
2023/04/22 01:14:22;;;;;;;;;;;;;;;18.71;59.16;98502.16;2079705;28;19974;-50
2023/04/22 01:15:23;;;;;;;;;;;;;;;18.72;59.31;98499.28;2080293;28;20919;-54
2023/04/22 01:16:27;;;;;;;;;;;;;;;18.70;59.14;98505.88;2079196;28;19932;-48
2023/04/22 01:17:28;;;;;;;;;;;;;;;18.69;59.05;98499.69;2083611;28;20427;-52
2023/04/22 01:18:29;;;;;;;;;;;;;;;18.70;58.99;98503.19;2080960;28;19929;-51
2023/04/22 01:19:31;;;;;;;;;;;;;;;18.70;59.23;98501.34;2080186;28;19935;-48
2023/04/22 01:20:33;;;;;;;;;;;;;;;18.69;58.98;98502.38;2083637;28;19925;-54
2023/04/22 01:21:33;;;;;;;;;;;;;;;18.69;59.11;98498.84;2077761;28;20010;-54
2023/04/22 01:22:36;;;;;;;;;;;;;;;18.68;59.09;98502.56;2084402;28;20317;-49
2023/04/22 01:23:38;;;;;;;;;;;;;;;18.66;59.25;98507.31;2081010;28;19963;-47
2023/04/22 01:24:40;;;;;;;;;;;;;;;18.70;59.07;98505.88;2078330;28;20019;-54
2023/04/22 01:25:40;;;;;;;;;;;;;;;18.70;58.88;98517.44;2082397;28;19928;-49
2023/04/22 01:26:42;;;;;;;;;;;;;;;18.69;59.29;98513.13;2079661;28;19969;-49
2023/04/22 01:27:43;;;;;;;;;;;;;;;18.69;58.92;98515.81;2078806;28;19974;-51
2023/04/22 01:28:44;;;;;;;;;;;;;;;18.71;59.09;98519.09;2079846;28;19939;-52
2023/04/22 01:29:45;;;;;;;;;;;;;;;18.69;58.99;98514.97;2078603;28;19932;-47
2023/04/22 01:30:48;;;;;;;;;;;;;;;18.69;59.32;98521.19;2080467;28;20034;-53
2023/04/22 01:31:49;;;;;;;;;;;;;;;18.66;59.24;98521.56;2079664;28;20030;-47
2023/04/22 01:32:50;;;;;;;;;;;;;;;18.68;59.26;98514.13;2077852;28;20116;-49
2023/04/22 01:33:51;;;;;;;;;;;;;;;18.67;59.18;98514.34;2083403;28;19982;-54
2023/04/22 01:34:52;;;;;;;;;;;;;;;18.67;59.14;98523.25;2079465;28;19928;-53
2023/04/22 01:35:53;;;;;;;;;;;;;;;18.66;58.98;98518.06;2078547;28;19979;-50
2023/04/22 01:36:54;;;;;;;;;;;;;;;18.65;59.32;98513.72;2078703;28;19939;-49
2023/04/22 01:37:56;;;;;;;;;;;;;;;18.65;59.23;98516.41;2077307;28;19929;-48
2023/04/22 01:38:59;;;;;;;;;;;;;;;18.66;58.98;98510.81;2078935;28;19998;-50
2023/04/22 01:40:00;;;;;;;;;;;;;;;18.67;59.04;98517.03;2078175;28;20824;-47
2023/04/22 01:41:02;;;;;;;;;;;;;;;18.68;59.14;98518.69;2075886;28;19932;-50
2023/04/22 01:42:03;;;;;;;;;;;;;;;18.68;59.03;98518.69;2076234;28;20015;-52
2023/04/22 01:43:04;;;;;;;;;;;;;;;18.69;59.16;98523.00;2068947;28;20031;-50
2023/04/22 01:44:05;;;;;;;;;;;;;;;18.68;58.89;98524.06;2081398;28;19981;-53
2023/04/22 01:45:07;;;;;;;;;;;;;;;18.67;59.03;98511.69;2079057;28;19978;-50
2023/04/22 01:46:08;;;;;;;;;;;;;;;18.67;59.13;98511.69;2078139;28;19928;-52
2023/04/22 01:47:10;;;;;;;;;;;;;;;18.67;59.17;98515.19;2079068;28;19924;-52
2023/04/22 01:48:11;;;;;;;;;;;;;;;18.67;58.95;98517.03;2077975;28;20426;-51
2023/04/22 01:49:12;;;;;;;;;;;;;;;18.67;59.14;98511.69;2075021;28;19924;-53
2023/04/22 01:50:12;;;;;;;;;;;;;;;18.67;58.94;98522.41;2078016;28;19933;-52
2023/04/22 01:51:14;;;;;;;;;;;;;;;18.65;59.03;98514.56;2078006;28;19994;-49
2023/04/22 01:52:14;;;;;;;;;;;;;;;18.65;59.13;98514.56;2082084;28;20480;-52
2023/04/22 01:53:16;;;;;;;;;;;;;;;18.68;59.00;98513.31;2079296;28;19974;-50
2023/04/22 01:54:18;;;;;;;;;;;;;;;18.69;58.58;98514.97;2077098;28;21067;-50
2023/04/22 01:55:19;;;;;;;;;;;;;;;18.68;58.76;98510.63;2077199;28;20027;-48
2023/04/22 01:56:20;;;;;;;;;;;;;;;18.70;58.53;98511.25;2070011;28;21190;-51
2023/04/22 01:57:21;;;;;;;;;;;;;;;18.67;58.74;98512.50;2070917;28;19932;-49
2023/04/22 01:58:22;;;;;;;;;;;;;;;18.68;58.99;98507.94;2069527;28;19971;-51
2023/04/22 01:59:23;;;;;;;;;;;;;;;18.69;58.90;98509.59;2070934;28;21041;-52
2023/04/22 02:00:24;;;;;;;;;;;;;;;18.67;58.80;98511.69;2070590;28;20464;-47
2023/04/22 02:01:25;;;;;;;;;;;;;;;18.65;58.95;98519.09;2068072;28;19983;-50
2023/04/22 02:02:25;;;;;;;;;;;;;;;18.67;58.88;98514.34;2071592;28;19929;-53
2023/04/22 02:03:27;;;;;;;;;;;;;;;18.67;58.73;98512.50;2073488;28;19928;-52
2023/04/22 02:04:28;;;;;;;;;;;;;;;18.66;58.75;98510.00;2078132;28;19925;-49
2023/04/22 02:05:29;;;;;;;;;;;;;;;18.65;58.86;98511.03;2076100;28;21153;-51
2023/04/22 02:06:31;;;;;;;;;;;;;;;18.66;58.56;98512.69;2068134;28;19933;-50
2023/04/22 02:07:31;;;;;;;;;;;;;;;18.65;58.99;98508.34;2073216;28;20546;-52
2023/04/22 02:08:33;;;;;;;;;;;;;;;18.65;58.97;98508.34;2071436;28;19929;-50
2023/04/22 02:09:35;;;;;;;;;;;;;;;18.66;58.98;98510.00;2068581;28;20904;-49
2023/04/22 02:10:36;;;;;;;;;;;;;;;18.67;58.96;98515.19;2070005;28;19937;-50
2023/04/22 02:11:36;;;;;;;;;;;;;;;18.66;58.73;98504.63;2069778;28;19933;-49
2023/04/22 02:12:38;;;;;;;;;;;;;;;18.65;58.70;98503.81;2071787;28;20408;-49
2023/04/22 02:13:39;;;;;;;;;;;;;;;18.65;58.81;98514.56;2069257;28;19962;-49
2023/04/22 02:14:41;;;;;;;;;;;;;;;18.66;58.90;98510.00;2068939;28;19929;-50
2023/04/22 02:15:41;;;;;;;;;;;;;;;18.65;58.96;98511.88;2070970;28;19983;-49
2023/04/22 02:16:43;;;;;;;;;;;;;;;18.62;58.96;98503.41;2069485;28;20011;-49
2023/04/22 02:17:43;;;;;;;;;;;;;;;18.60;58.89;98508.97;2067930;28;22222;-50
2023/04/22 02:18:44;;;;;;;;;;;;;;;18.60;58.89;98503.59;2066976;28;19939;-48
2023/04/22 02:19:45;;;;;;;;;;;;;;;18.62;58.99;98511.47;2069617;28;20349;-49
2023/04/22 02:20:46;;;;;;;;;;;;;;;18.61;58.95;98512.47;2070559;28;19925;-48
2023/04/22 02:21:47;;;;;;;;;;;;;;;18.60;58.76;98508.97;2069575;28;20458;-48
2023/04/22 02:22:49;;;;;;;;;;;;;;;18.61;59.08;98513.31;2071181;28;19936;-49
2023/04/22 02:23:50;;;;;;;;;;;;;;;18.61;58.94;98509.78;2072804;28;20015;-49
2023/04/22 02:24:52;;;;;;;;;;;;;;;18.62;58.89;98508.78;2073772;28;21194;-50
2023/04/22 02:25:54;;;;;;;;;;;;;;;18.64;58.88;98518.28;2079278;28;19977;-48
2023/04/22 02:26:57;;;;;;;;;;;;;;;18.63;58.89;98516.63;2077149;28;19939;-52
2023/04/22 02:27:57;;;;;;;;;;;;;;;18.61;58.82;98505.28;2080343;28;20395;-48
2023/04/22 02:28:59;;;;;;;;;;;;;;;18.61;59.00;98510.63;2075664;28;19929;-49
2023/04/22 02:29:59;;;;;;;;;;;;;;;18.62;58.91;98509.59;2079313;28;19925;-50
2023/04/22 02:31:01;;;;;;;;;;;;;;;18.63;58.75;98508.56;2078051;28;19929;-47
2023/04/22 02:32:01;;;;;;;;;;;;;;;18.64;58.83;98509.41;2078201;28;20344;-49
2023/04/22 02:33:03;;;;;;;;;;;;;;;18.62;58.82;98498.84;2077009;28;20005;-48
2023/04/22 02:34:03;;;;;;;;;;;;;;;18.60;58.69;98502.78;2077657;28;20015;-47
2023/04/22 02:35:05;;;;;;;;;;;;;;;18.62;58.65;98503.41;2077131;28;19943;-49
2023/04/22 02:36:05;;;;;;;;;;;;;;;18.62;58.72;98503.41;2085257;28;19924;-49
2023/04/22 02:37:07;;;;;;;;;;;;;;;18.60;58.61;98506.28;2086361;28;19959;-52
2023/04/22 02:38:07;;;;;;;;;;;;;;;18.60;58.64;98505.47;2083040;28;19928;-49
2023/04/22 02:39:09;;;;;;;;;;;;;;;18.61;58.89;98505.28;2085359;28;19958;-48
2023/04/22 02:40:11;;;;;;;;;;;;;;;18.62;58.92;98514.16;2086050;28;19932;-48
2023/04/22 02:41:13;;;;;;;;;;;;;;;18.62;58.63;98503.41;2085135;28;19944;-50
2023/04/22 02:42:13;;;;;;;;;;;;;;;18.60;58.63;98497.41;2086718;28;20434;-50
2023/04/22 02:43:15;;;;;;;;;;;;;;;18.59;59.00;98504.63;2079975;28;19982;-47
2023/04/22 02:44:15;;;;;;;;;;;;;;;18.60;58.72;98505.47;2077629;28;19972;-50
2023/04/22 02:45:17;;;;;;;;;;;;;;;18.58;58.94;98500.28;2078433;28;20403;-51
2023/04/22 02:46:17;;;;;;;;;;;;;;;18.58;58.78;98502.16;2076554;28;20291;-50
2023/04/22 02:47:18;;;;;;;;;;;;;;;18.60;58.67;98500.91;2078135;28;20023;-52
2023/04/22 02:48:19;;;;;;;;;;;;;;;18.60;58.67;98505.47;2077766;28;20390;-50
2023/04/22 02:49:20;;;;;;;;;;;;;;;18.60;58.60;98500.91;2078388;28;20049;-49
2023/04/22 02:50:21;;;;;;;;;;;;;;;18.59;58.88;98498.44;2076042;28;19929;-50
2023/04/22 02:51:23;;;;;;;;;;;;;;;18.58;58.91;98502.16;2077716;28;20504;-50
2023/04/22 02:52:23;;;;;;;;;;;;;;;18.56;59.02;98505.06;2076104;28;19974;-49
2023/04/22 02:53:24;;;;;;;;;;;;;;;18.56;58.89;98501.56;2076562;28;19936;-50
2023/04/22 02:54:25;;;;;;;;;;;;;;;18.58;58.91;98500.28;2085307;28;19924;-48
2023/04/22 02:55:28;;;;;;;;;;;;;;;18.57;58.63;98495.13;2077688;28;19966;-48
2023/04/22 02:56:28;;;;;;;;;;;;;;;18.56;58.93;98499.69;2076311;28;19925;-51
2023/04/22 02:57:30;;;;;;;;;;;;;;;18.57;58.89;98497.81;2080194;28;20029;-50
2023/04/22 02:58:30;;;;;;;;;;;;;;;18.58;58.86;98497.59;2075523;28;20007;-50
2023/04/22 02:59:32;;;;;;;;;;;;;;;18.57;58.96;98500.50;2076992;28;19982;-48
2023/04/22 03:00:32;;;;;;;;;;;;;;;18.55;58.83;98498.00;2077916;28;19983;-50
2023/04/22 03:01:34;;;;;;;;;;;;;;;18.59;58.77;98498.44;2079203;28;19996;-48
2023/04/22 03:02:34;;;;;;;;;;;;;;;18.58;58.80;98494.91;2077475;28;19933;-50
2023/04/22 03:03:36;;;;;;;;;;;;;;;18.58;58.66;98502.16;2076298;28;20456;-47
2023/04/22 03:04:37;;;;;;;;;;;;;;;18.57;58.83;98492.44;2068351;28;19932;-49
2023/04/22 03:05:38;;;;;;;;;;;;;;;18.57;58.87;98493.28;2068827;28;21132;-49
2023/04/22 03:06:39;;;;;;;;;;;;;;;18.57;58.90;98501.31;2068933;28;19933;-47
2023/04/22 03:07:40;;;;;;;;;;;;;;;18.54;58.70;98496.38;2069925;28;19933;-48
2023/04/22 03:08:41;;;;;;;;;;;;;;;18.51;58.95;98500.28;2069550;28;19936;-49
2023/04/22 03:09:42;;;;;;;;;;;;;;;18.54;58.67;98499.88;2075811;28;19928;-49
2023/04/22 03:10:44;;;;;;;;;;;;;;;18.54;58.72;98497.19;2067111;28;19982;-48
2023/04/22 03:11:45;;;;;;;;;;;;;;;18.56;58.61;98499.69;2069810;28;19929;-49
2023/04/22 03:12:47;;;;;;;;;;;;;;;18.57;58.61;98495.97;2069497;28;20031;-48
2023/04/22 03:13:48;;;;;;;;;;;;;;;18.57;58.82;98500.50;2070721;28;19924;-50
2023/04/22 03:14:48;;;;;;;;;;;;;;;18.57;58.59;98505.88;2072889;28;19970;-50
2023/04/22 03:15:50;;;;;;;;;;;;;;;18.56;58.81;98504.22;2076948;28;20357;-49
2023/04/22 03:16:50;;;;;;;;;;;;;;;18.56;58.64;98498.88;2078041;28;20079;-50
2023/04/22 03:17:52;;;;;;;;;;;;;;;18.57;58.89;98500.50;2076080;28;19959;-51
2023/04/22 03:18:52;;;;;;;;;;;;;;;18.58;58.72;98500.28;2076804;28;20012;-48
2023/04/22 03:19:54;;;;;;;;;;;;;;;18.54;58.69;98502.56;2079203;28;20428;-48
2023/04/22 03:20:54;;;;;;;;;;;;;;;18.59;58.57;98503.81;2075931;28;20643;-47
2023/04/22 03:21:57;;;;;;;;;;;;;;;18.54;58.78;98507.13;2077179;28;19932;-52
2023/04/22 03:22:57;;;;;;;;;;;;;;;18.53;59.02;98500.91;2078170;28;20406;-48
2023/04/22 03:23:59;;;;;;;;;;;;;;;18.52;58.77;98504.63;2076207;28;19933;-49
2023/04/22 03:25:00;;;;;;;;;;;;;;;18.54;58.85;98509.81;2078993;28;19925;-49
2023/04/22 03:26:02;;;;;;;;;;;;;;;18.54;58.64;98507.94;2079914;28;19971;-49
2023/04/22 03:27:03;;;;;;;;;;;;;;;18.54;58.72;98507.94;2078392;28;19977;-50
2023/04/22 03:28:04;;;;;;;;;;;;;;;18.54;58.78;98501.75;2076002;28;19940;-50
2023/04/22 03:29:06;;;;;;;;;;;;;;;18.53;58.69;98500.09;2078314;28;19929;-49
2023/04/22 03:30:08;;;;;;;;;;;;;;;18.53;58.71;98508.97;2077027;28;20373;-50
2023/04/22 03:31:08;;;;;;;;;;;;;;;18.55;58.64;98503.38;2076263;28;19932;-47
2023/04/22 03:32:10;;;;;;;;;;;;;;;18.52;58.73;98498.44;2076709;28;19936;-47
2023/04/22 03:33:10;;;;;;;;;;;;;;;18.53;58.68;98506.28;2078618;28;20504;-51
2023/04/22 03:34:12;;;;;;;;;;;;;;;18.52;58.66;98504.63;2078574;28;19924;-48
2023/04/22 03:35:12;;;;;;;;;;;;;;;18.54;58.63;98501.75;2078672;28;19989;-49
2023/04/22 03:36:14;;;;;;;;;;;;;;;18.53;58.50;98506.28;2079747;28;20395;-50
2023/04/22 03:37:15;;;;;;;;;;;;;;;18.54;58.59;98501.75;2076923;28;19928;-50
2023/04/22 03:38:16;;;;;;;;;;;;;;;18.53;58.47;98500.91;2079388;28;19929;-48
2023/04/22 03:39:17;;;;;;;;;;;;;;;18.49;58.68;98488.91;2078478;28;20445;-46
2023/04/22 03:40:18;;;;;;;;;;;;;;;18.49;58.72;98494.28;2080300;28;19933;-48
2023/04/22 03:41:20;;;;;;;;;;;;;;;18.49;58.77;98499.66;2084061;28;20171;-46
2023/04/22 03:42:22;;;;;;;;;;;;;;;18.50;58.78;98501.34;2076446;28;19924;-48
2023/04/22 03:43:22;;;;;;;;;;;;;;;18.51;58.56;98502.16;2076058;28;20039;-49
2023/04/22 03:44:24;;;;;;;;;;;;;;;18.50;58.62;98493.28;2076431;28;19928;-48
2023/04/22 03:45:24;;;;;;;;;;;;;;;18.53;58.70;98495.56;2078814;28;19940;-50
2023/04/22 03:46:26;;;;;;;;;;;;;;;18.50;58.54;98501.34;2079654;28;19928;-50
2023/04/22 03:47:26;;;;;;;;;;;;;;;18.51;58.61;98499.47;2076402;28;19944;-48
2023/04/22 03:48:28;;;;;;;;;;;;;;;18.50;58.80;98503.19;2078973;28;19932;-49
2023/04/22 03:49:29;;;;;;;;;;;;;;;18.50;58.86;98501.34;2075620;28;21557;-49
2023/04/22 03:50:31;;;;;;;;;;;;;;;18.49;58.83;98499.66;2078070;28;19933;-50
2023/04/22 03:51:31;;;;;;;;;;;;;;;18.48;58.84;98502.56;2075941;28;19945;-49
2023/04/22 03:52:32;;;;;;;;;;;;;;;18.51;58.77;98497.59;2078547;28;20525;-49
2023/04/22 03:53:33;;;;;;;;;;;;;;;18.50;58.61;98498.66;2077437;28;19925;-47
2023/04/22 03:54:34;;;;;;;;;;;;;;;18.49;58.53;98498.84;2079379;28;19962;-49
2023/04/22 03:55:35;;;;;;;;;;;;;;;18.48;58.75;98498.03;2075106;28;24592;-49
2023/04/22 03:56:38;;;;;;;;;;;;;;;18.49;58.71;98499.66;2080869;28;20007;-48
2023/04/22 03:57:38;;;;;;;;;;;;;;;18.48;58.35;98500.72;2080838;28;19933;-48
2023/04/22 03:58:39;;;;;;;;;;;;;;;18.50;58.60;98497.81;2078074;28;20447;-51
2023/04/22 03:59:40;;;;;;;;;;;;;;;18.49;58.71;98502.34;2077765;28;22924;-48
2023/04/22 04:00:41;;;;;;;;;;;;;;;18.49;58.54;98499.66;2075690;28;19933;-48
2023/04/22 04:01:42;;;;;;;;;;;;;;;18.47;58.80;98499.06;2079449;28;22326;-50
2023/04/22 04:02:43;;;;;;;;;;;;;;;18.49;58.72;98505.03;2076683;28;19933;-50
2023/04/22 04:03:44;;;;;;;;;;;;;;;18.48;58.85;98502.56;2079544;28;20880;-49
2023/04/22 04:04:45;;;;;;;;;;;;;;;18.47;58.88;98501.75;2083336;28;19937;-54
2023/04/22 04:05:45;;;;;;;;;;;;;;;18.48;58.65;98503.41;2082569;28;19993;-48
2023/04/22 04:06:47;;;;;;;;;;;;;;;18.47;58.61;98501.75;2081696;28;20867;-51
2023/04/22 04:07:47;;;;;;;;;;;;;;;18.48;58.68;98495.34;2081204;28;19929;-47
2023/04/22 04:08:49;;;;;;;;;;;;;;;18.48;58.59;98500.72;2080939;28;19949;-54
2023/04/22 04:09:49;;;;;;;;;;;;;;;18.49;58.51;98498.84;2079540;28;20267;-51
2023/04/22 04:10:51;;;;;;;;;;;;;;;18.50;58.39;98503.19;2079617;28;19975;-49
2023/04/22 04:11:53;;;;;;;;;;;;;;;18.48;58.64;98503.41;2084853;28;19928;-54
2023/04/22 04:12:54;;;;;;;;;;;;;;;18.48;58.76;98506.06;2085208;28;19928;-51
2023/04/22 04:13:55;;;;;;;;;;;;;;;18.44;58.55;98498.63;2083809;28;19933;-49
2023/04/22 04:14:56;;;;;;;;;;;;;;;18.44;58.81;98504.00;2084907;28;19969;-51
2023/04/22 04:15:57;;;;;;;;;;;;;;;18.46;58.67;98497.41;2089895;28;19970;-50
2023/04/22 04:16:58;;;;;;;;;;;;;;;18.42;58.75;98501.53;2089339;28;19966;-51
2023/04/22 04:18:00;;;;;;;;;;;;;;;18.44;58.86;98495.94;2090008;28;19928;-52
2023/04/22 04:19:01;;;;;;;;;;;;;;;18.42;58.65;98501.53;2087987;28;19929;-53
2023/04/22 04:20:02;;;;;;;;;;;;;;;18.43;58.56;98505.88;2089726;28;19928;-52
2023/04/22 04:21:03;;;;;;;;;;;;;;;18.43;58.70;98500.50;2087370;28;19936;-51
2023/04/22 04:22:04;;;;;;;;;;;;;;;18.44;58.54;98502.16;2082371;28;20395;-51
2023/04/22 04:23:05;;;;;;;;;;;;;;;18.43;58.78;98503.19;2084064;28;19985;-54
2023/04/22 04:24:06;;;;;;;;;;;;;;;18.47;58.50;98506.28;2090224;28;20478;-50
2023/04/22 04:25:08;;;;;;;;;;;;;;;18.43;58.66;98500.50;2086944;28;19933;-49
2023/04/22 04:26:08;;;;;;;;;;;;;;;18.44;58.56;98502.16;2089669;28;20284;-48
2023/04/22 04:27:11;;;;;;;;;;;;;;;18.42;58.55;98509.59;2087594;28;20031;-48
2023/04/22 04:28:12;;;;;;;;;;;;;;;18.41;58.59;98496.34;2089232;28;19925;-47
2023/04/22 04:29:14;;;;;;;;;;;;;;;18.43;58.71;98500.50;2078651;28;19983;-51
2023/04/22 04:30:15;;;;;;;;;;;;;;;18.41;58.68;98505.22;2071039;28;19936;-51
2023/04/22 04:31:16;;;;;;;;;;;;;;;18.40;58.75;98503.59;2071967;28;20408;-50
2023/04/22 04:32:17;;;;;;;;;;;;;;;18.39;58.59;98504.63;2071642;28;19925;-51
2023/04/22 04:33:18;;;;;;;;;;;;;;;18.40;58.84;98505.47;2071935;28;19933;-56
2023/04/22 04:34:19;;;;;;;;;;;;;;;18.43;58.66;98513.09;2081514;28;19998;-52
2023/04/22 04:35:20;;;;;;;;;;;;;;;18.41;58.49;98507.91;2079386;28;20334;-51
2023/04/22 04:36:21;;;;;;;;;;;;;;;18.41;58.74;98507.91;2073179;28;19928;-52
2023/04/22 04:37:22;;;;;;;;;;;;;;;18.41;58.50;98512.47;2078060;28;20337;-49
2023/04/22 04:38:23;;;;;;;;;;;;;;;18.40;58.75;98511.66;2086466;28;20960;-53
2023/04/22 04:39:25;;;;;;;;;;;;;;;18.41;58.43;98509.78;2080472;28;19939;-52
2023/04/22 04:40:28;;;;;;;;;;;;;;;18.40;58.74;98508.97;2080916;28;21408;-50
2023/04/22 04:41:30;;;;;;;;;;;;;;;18.41;58.67;98510.59;2082408;28;19933;-49
2023/04/22 04:42:32;;;;;;;;;;;;;;;18.39;58.71;98506.50;2083189;28;19928;-53
2023/04/22 04:43:34;;;;;;;;;;;;;;;18.40;58.54;98514.34;2081411;28;20437;-47
2023/04/22 04:44:34;;;;;;;;;;;;;;;18.40;58.69;98511.66;2078362;28;19937;-54
2023/04/22 04:45:36;;;;;;;;;;;;;;;18.44;58.72;98512.06;2082509;28;19932;-53
2023/04/22 04:46:37;;;;;;;;;;;;;;;18.41;58.75;98513.28;2080153;28;19936;-51
2023/04/22 04:47:38;;;;;;;;;;;;;;;18.41;58.53;98515.97;2079625;28;19932;-52
2023/04/22 04:48:41;;;;;;;;;;;;;;;18.40;58.81;98511.66;2082353;28;20472;-51
2023/04/22 04:49:42;;;;;;;;;;;;;;;18.40;58.63;98516.19;2080209;28;19975;-53
2023/04/22 04:50:43;;;;;;;;;;;;;;;18.40;58.74;98519.72;2082202;28;19925;-49
2023/04/22 04:51:44;;;;;;;;;;;;;;;18.39;58.76;98515.38;2081129;28;19982;-54
2023/04/22 04:52:45;;;;;;;;;;;;;;;18.44;58.56;98514.75;2077583;28;19925;-52
2023/04/22 04:53:47;;;;;;;;;;;;;;;18.42;58.44;98520.34;2080983;28;19925;-54
2023/04/22 04:54:47;;;;;;;;;;;;;;;18.42;58.69;98519.50;2077758;28;19964;-51
2023/04/22 04:55:49;;;;;;;;;;;;;;;18.39;58.67;98520.75;2080440;28;20283;-51
2023/04/22 04:56:49;;;;;;;;;;;;;;;18.40;58.53;98516.19;2078575;28;19929;-52
2023/04/22 04:57:52;;;;;;;;;;;;;;;18.41;58.44;98518.66;2080977;28;19929;-54
2023/04/22 04:58:52;;;;;;;;;;;;;;;18.39;58.71;98520.75;2082349;28;20506;-48
2023/04/22 04:59:54;;;;;;;;;;;;;;;18.39;58.65;98520.75;2080877;28;19929;-53
2023/04/22 05:00:54;;;;;;;;;;;;;;;18.39;58.70;98518.06;2080455;28;19932;-55
2023/04/22 05:01:56;;;;;;;;;;;;;;;18.42;58.50;98525.69;2080899;28;19932;-50
2023/04/22 05:02:56;;;;;;;;;;;;;;;18.41;58.54;98515.97;2081579;28;19992;-51
2023/04/22 05:03:57;;;;;;;;;;;;;;;18.43;58.46;98521.16;2081343;28;19933;-47
2023/04/22 05:04:58;;;;;;;;;;;;;;;18.42;58.62;98522.19;2079869;28;19932;-52
2023/04/22 05:05:59;;;;;;;;;;;;;;;18.42;58.48;98522.19;2079211;28;19983;-49
2023/04/22 05:07:00;;;;;;;;;;;;;;;18.41;58.50;98532.09;2079158;28;20505;-49
2023/04/22 05:08:01;;;;;;;;;;;;;;;18.39;58.46;98526.13;2072994;28;20006;-54
2023/04/22 05:09:02;;;;;;;;;;;;;;;18.36;58.72;98526.53;2076616;28;20860;-55
2023/04/22 05:10:04;;;;;;;;;;;;;;;18.37;58.48;98533.53;2078395;28;19928;-50
2023/04/22 05:11:04;;;;;;;;;;;;;;;18.39;58.62;98531.50;2077603;28;20559;-49
2023/04/22 05:12:06;;;;;;;;;;;;;;;18.37;58.46;98528.16;2079823;28;19932;-50
2023/04/22 05:13:07;;;;;;;;;;;;;;;18.36;58.48;98539.09;2078205;28;19966;-53
2023/04/22 05:14:09;;;;;;;;;;;;;;;18.37;58.39;98533.53;2079845;28;19972;-54
2023/04/22 05:15:10;;;;;;;;;;;;;;;18.39;58.45;98530.66;2077852;28;19928;-54
2023/04/22 05:16:11;;;;;;;;;;;;;;;18.39;58.56;98531.50;2080140;28;19929;-50
2023/04/22 05:17:13;;;;;;;;;;;;;;;18.40;58.33;98538.50;2079132;28;19932;-54
2023/04/22 05:18:14;;;;;;;;;;;;;;;18.40;58.37;98537.69;2073230;28;19928;-52
2023/04/22 05:19:15;;;;;;;;;;;;;;;18.40;58.54;98543.06;2077113;28;21125;-54